createdAt,value
2023-01-06T00:01:17.549Z,4.60
2023-01-06T00:06:27.220Z,4.57
2023-01-06T00:11:30.665Z,4.82
2023-01-06T00:16:32.897Z,4.70
2023-01-06T00:21:34.952Z,5.05
2023-01-06T00:26:37.180Z,5.20
2023-01-06T00:31:39.565Z,4.40
2023-01-06T00:36:43.660Z,4.43
2023-01-06T00:42:03.762Z,3.35
2023-01-06T00:47:08.973Z,3.17
2023-01-06T00:52:11.364Z,3.20
2023-01-06T00:57:14.040Z,2.58
2023-01-06T01:02:16.898Z,2.80
2023-01-06T01:07:19.347Z,2.40
2023-01-06T01:12:21.381Z,2.63
2023-01-06T01:17:29.001Z,2.72
2023-01-06T01:22:32.831Z,2.30
2023-01-06T01:27:36.132Z,1.98
2023-01-06T01:32:38.109Z,2.42
2023-01-06T01:37:40.296Z,1.67
2023-01-06T01:42:42.419Z,1.88
2023-01-06T01:47:55.625Z,2.33
2023-01-06T01:53:11.018Z,2.30
2023-01-06T01:58:19.997Z,2.20
2023-01-06T02:03:24.233Z,2.35
2023-01-06T02:08:44.503Z,2.10
2023-01-06T02:13:49.439Z,1.65
2023-01-06T02:19:06.657Z,1.40
2023-01-06T02:24:27.336Z,1.60
2023-01-06T02:30:05.403Z,1.20
2023-01-06T02:35:49.614Z,1.50
2023-01-06T02:41:14.735Z,1.13
2023-01-06T02:46:43.580Z,1.33
2023-01-06T02:51:51.868Z,1.50
2023-01-06T02:57:16.619Z,1.70
2023-01-06T03:02:21.974Z,1.67
2023-01-06T03:07:28.442Z,1.98
2023-01-06T03:12:38.939Z,1.50
2023-01-06T03:17:41.655Z,1.48
2023-01-06T03:22:43.938Z,1.35
2023-01-06T03:27:45.993Z,1.40
2023-01-06T03:33:18.211Z,1.38
2023-01-06T03:38:42.430Z,1.38
2023-01-06T03:43:48.936Z,1.40
2023-01-06T03:49:14.505Z,1.35
2023-01-06T03:54:28.463Z,2.00
2023-01-06T03:59:38.177Z,1.60
2023-01-06T04:04:41.275Z,1.58
2023-01-06T04:09:43.837Z,1.50
2023-01-06T04:14:46.633Z,1.75
2023-01-06T04:19:48.746Z,1.83
2023-01-06T04:24:51.037Z,1.60
2023-01-06T04:29:53.154Z,1.38
2023-01-06T04:34:55.289Z,1.20
2023-01-06T04:39:57.949Z,1.38
2023-01-06T04:44:59.978Z,1.30
2023-01-06T04:50:02.022Z,1.30
2023-01-06T04:55:04.588Z,1.30
2023-01-06T05:00:07.246Z,1.02
2023-01-06T05:05:09.557Z,1.10
2023-01-06T05:10:11.902Z,0.90
2023-01-06T05:15:13.990Z,1.15
2023-01-06T05:20:16.051Z,1.10
2023-01-06T05:25:18.051Z,1.10
2023-01-06T05:30:20.109Z,1.08
2023-01-06T05:35:22.224Z,1.27
2023-01-06T05:40:24.299Z,1.20
2023-01-06T05:45:26.454Z,0.98
2023-01-06T05:50:28.476Z,1.48
2023-01-06T05:55:30.505Z,1.38
2023-01-06T06:00:32.543Z,1.30
2023-01-06T06:05:34.542Z,1.30
2023-01-06T06:10:36.552Z,1.33
2023-01-06T06:15:38.660Z,1.13
2023-01-06T06:20:40.693Z,1.73
2023-01-06T06:25:42.725Z,1.40
2023-01-06T06:30:44.720Z,1.60
2023-01-06T06:35:57.191Z,1.60
2023-01-06T06:40:59.287Z,2.10
2023-01-06T06:46:01.335Z,2.00
2023-01-06T06:51:06.601Z,2.47
2023-01-06T06:56:09.683Z,2.10
2023-01-06T07:01:14.220Z,2.83
2023-01-06T07:06:20.054Z,3.55
2023-01-06T07:11:22.167Z,3.30
2023-01-06T07:16:26.775Z,4.03
2023-01-06T07:21:28.909Z,4.10
2023-01-06T07:26:31.037Z,4.18
2023-01-06T07:31:33.140Z,4.90
2023-01-06T07:36:35.194Z,4.47
2023-01-06T07:41:37.164Z,5.22
2023-01-06T07:46:43.332Z,5.47
2023-01-06T07:51:45.445Z,5.20
2023-01-06T07:56:47.785Z,4.95
2023-01-06T08:01:50.103Z,4.35
2023-01-06T08:06:52.512Z,4.65
2023-01-06T08:11:54.723Z,4.50
2023-01-06T08:16:57.049Z,4.32
2023-01-06T08:21:59.276Z,4.15
2023-01-06T08:27:01.598Z,4.20
2023-01-06T08:32:10.454Z,4.03
2023-01-06T08:37:13.013Z,3.90
2023-01-06T08:42:15.139Z,4.15
2023-01-06T08:47:17.225Z,4.55
2023-01-06T08:52:19.219Z,3.78
2023-01-06T08:57:21.249Z,3.72
2023-01-06T09:02:23.371Z,3.67
2023-01-06T09:07:25.516Z,4.10
2023-01-06T09:12:27.539Z,4.25
2023-01-06T09:17:30.393Z,3.83
2023-01-06T09:22:32.482Z,4.28
2023-01-06T09:27:34.597Z,3.58
2023-01-06T09:32:36.853Z,3.90
2023-01-06T09:37:38.950Z,3.38
2023-01-06T09:42:59.101Z,3.55
2023-01-06T09:48:03.886Z,2.92
2023-01-06T09:53:22.563Z,2.92
2023-01-06T09:58:31.327Z,2.60
2023-01-06T10:03:34.222Z,2.35
2023-01-06T10:09:01.536Z,1.88
2023-01-06T10:14:15.707Z,1.90
2023-01-06T10:19:36.678Z,2.13
2023-01-06T10:25:01.889Z,1.90
2023-01-06T10:30:14.392Z,1.50
2023-01-06T10:35:20.064Z,1.67
2023-01-06T10:40:27.314Z,1.70
2023-01-06T10:45:38.116Z,2.72
2023-01-06T10:50:40.159Z,2.67
2023-01-06T10:55:56.374Z,1.77
2023-01-06T11:01:11.583Z,1.40
2023-01-06T11:06:31.228Z,1.40
2023-01-06T11:11:33.860Z,1.85
2023-01-06T11:16:36.984Z,2.10
2023-01-06T11:21:46.609Z,1.92
2023-01-06T11:26:59.051Z,1.33
2023-01-06T11:32:11.158Z,1.35
2023-01-06T11:37:15.049Z,1.67
2023-01-06T11:42:17.407Z,1.55
2023-01-06T11:47:27.245Z,1.17
2023-01-06T11:52:31.998Z,1.45
2023-01-06T11:57:52.055Z,1.58
2023-01-06T12:03:35.978Z,2.03
2023-01-06T12:08:54.152Z,1.77
2023-01-06T12:14:11.021Z,1.58
2023-01-06T12:19:20.667Z,1.48
2023-01-06T12:24:24.368Z,2.00
2023-01-06T12:29:26.684Z,2.28
2023-01-06T12:34:37.298Z,2.08
2023-01-06T12:39:53.168Z,2.05
2023-01-06T12:45:04.686Z,2.60
2023-01-06T12:50:35.595Z,2.20
2023-01-06T12:55:46.386Z,2.13
2023-01-06T13:00:58.944Z,2.17
2023-01-06T13:06:19.525Z,2.55
2023-01-06T13:11:30.765Z,1.60
2023-01-06T13:16:43.098Z,1.83
2023-01-06T13:21:47.471Z,2.10
2023-01-06T13:26:58.504Z,1.98
2023-01-06T13:32:07.967Z,1.98
2023-01-06T13:37:36.152Z,2.42
2023-01-06T13:42:46.535Z,2.35
2023-01-06T13:47:49.834Z,2.07
2023-01-06T13:52:52.420Z,2.20
2023-01-06T13:57:55.209Z,2.15
2023-01-06T14:03:02.098Z,2.63
2023-01-06T14:08:16.538Z,2.53
2023-01-06T14:13:29.822Z,3.22
2023-01-06T14:18:44.733Z,2.88
2023-01-06T14:24:03.201Z,2.90
2023-01-06T14:29:39.207Z,2.72
2023-01-06T14:34:49.329Z,3.17
2023-01-06T14:39:54.665Z,2.38
2023-01-06T14:45:00.199Z,1.73
2023-01-06T14:50:07.648Z,1.98
2023-01-06T14:55:14.757Z,2.40
2023-01-06T15:00:24.218Z,2.35
2023-01-06T15:05:32.905Z,2.88
2023-01-06T15:11:15.171Z,2.78
2023-01-06T15:21:44.472Z,2.42
2023-01-06T15:26:46.834Z,2.58
2023-01-06T15:31:50.976Z,2.42
2023-01-06T15:36:56.013Z,2.75
2023-01-06T15:41:59.707Z,2.88
2023-01-06T15:47:04.780Z,2.70
2023-01-06T15:52:13.300Z,2.83
2023-01-06T15:57:17.207Z,3.35
2023-01-06T16:02:23.267Z,2.75
2023-01-06T16:07:39.902Z,2.75
2023-01-06T16:12:41.891Z,3.50
2023-01-06T16:17:46.436Z,3.47
2023-01-06T16:22:51.960Z,5.32
2023-01-06T16:27:57.170Z,7.05
2023-01-06T16:33:02.490Z,4.68
2023-01-06T16:38:06.656Z,4.40
2023-01-06T16:43:08.872Z,5.53
2023-01-06T16:48:15.831Z,5.00
2023-01-06T16:53:20.810Z,6.18
2023-01-06T16:58:34.521Z,6.88
2023-01-06T17:03:37.772Z,7.15
2023-01-06T17:08:40.384Z,7.30
2023-01-06T17:13:51.258Z,8.02
2023-01-06T17:18:54.750Z,8.02
2023-01-06T17:24:02.213Z,10.98
2023-01-06T17:29:13.586Z,9.77
2023-01-06T17:34:35.994Z,9.05
2023-01-06T17:39:40.901Z,7.43
2023-01-06T17:44:50.373Z,5.90
2023-01-06T17:49:55.122Z,6.35
2023-01-06T17:55:20.356Z,6.28
2023-01-06T18:00:24.122Z,6.72
2023-01-06T18:05:26.190Z,7.05
2023-01-06T18:10:28.228Z,6.07
2023-01-06T18:15:33.514Z,5.97
2023-01-06T18:20:35.758Z,4.97
2023-01-06T18:25:38.698Z,4.82
2023-01-06T18:30:40.780Z,5.00
2023-01-06T18:35:43.491Z,3.80
2023-01-06T18:40:45.647Z,2.67
2023-01-06T18:45:50.932Z,2.80
2023-01-06T18:50:55.621Z,2.78
2023-01-06T18:56:01.607Z,3.72
2023-01-06T19:01:19.491Z,3.67
2023-01-06T19:06:30.502Z,5.00
2023-01-06T19:11:33.413Z,5.60
2023-01-06T19:16:41.299Z,5.93
2023-01-06T19:21:43.918Z,6.35
2023-01-06T19:26:46.032Z,7.55
2023-01-06T19:31:54.584Z,8.55
2023-01-06T19:36:58.134Z,9.60
2023-01-06T19:42:15.701Z,10.20
2023-01-06T19:47:19.426Z,10.52
2023-01-06T19:52:32.414Z,10.27
2023-01-06T19:57:38.546Z,10.07
2023-01-06T20:02:45.093Z,10.48
2023-01-06T20:07:47.317Z,9.98
2023-01-06T20:12:49.727Z,10.52
2023-01-06T20:17:51.950Z,9.70
2023-01-06T20:22:54.193Z,9.35
2023-01-06T20:27:56.610Z,8.88
2023-01-06T20:32:58.824Z,8.60
2023-01-06T20:38:01.083Z,9.00
2023-01-06T20:43:03.469Z,8.50
2023-01-06T20:48:05.950Z,8.95
2023-01-06T20:53:08.996Z,8.13
2023-01-06T20:58:10.968Z,7.97
2023-01-06T21:03:13.070Z,7.85
2023-01-06T21:08:15.408Z,7.45
2023-01-06T21:13:17.496Z,7.43
2023-01-06T21:18:19.628Z,8.25
2023-01-06T21:23:21.653Z,7.60
2023-01-06T21:28:23.755Z,7.85
2023-01-06T21:33:25.846Z,7.53
2023-01-06T21:38:27.968Z,7.65
2023-01-06T21:43:30.039Z,6.88
2023-01-06T21:48:32.022Z,7.03
2023-01-06T21:53:34.217Z,7.10
2023-01-06T21:58:36.358Z,7.35
2023-01-06T22:03:38.409Z,7.20
2023-01-06T22:08:40.564Z,7.35
2023-01-06T22:13:42.911Z,7.60
2023-01-06T22:18:45.353Z,7.82
2023-01-06T22:23:47.455Z,7.65
2023-01-06T22:28:49.434Z,7.85
2023-01-06T22:33:53.903Z,7.20
2023-01-06T22:38:56.025Z,7.25
2023-01-06T22:43:58.262Z,7.47
2023-01-06T22:49:00.308Z,7.45
2023-01-06T22:54:02.497Z,7.10
2023-01-06T22:59:04.604Z,7.22
2023-01-06T23:04:06.777Z,6.97
2023-01-06T23:09:08.868Z,7.53
2023-01-06T23:14:13.032Z,6.75
2023-01-06T23:19:16.569Z,7.07
2023-01-06T23:24:18.704Z,7.32
2023-01-06T23:29:20.790Z,7.40
2023-01-06T23:34:22.904Z,7.55
2023-01-06T23:39:25.556Z,7.03
2023-01-06T23:44:27.536Z,7.68
2023-01-06T23:49:29.631Z,6.72
2023-01-06T23:54:31.611Z,7.30
2023-01-06T23:59:33.617Z,7.38
